sensor_id;sensor_type;location;lat;lon;timestamp;P1;durP1;ratioP1;P2;durP2;ratioP2
61527;SDS011;47395;42.032;-8.634;2023-08-06T00:00:58;4.65;;;1.60;;
61527;SDS011;47395;42.032;-8.634;2023-08-06T00:02:59;1.90;;;1.70;;
61527;SDS011;47395;42.032;-8.634;2023-08-06T00:05:00;2.13;;;1.67;;
61527;SDS011;47395;42.032;-8.634;2023-08-06T00:07:01;1.60;;;1.50;;
61527;SDS011;47395;42.032;-8.634;2023-08-06T00:09:02;2.22;;;1.38;;
61527;SDS011;47395;42.032;-8.634;2023-08-06T00:11:03;1.67;;;1.02;;
61527;SDS011;47395;42.032;-8.634;2023-08-06T00:13:04;2.65;;;1.50;;
61527;SDS011;47395;42.032;-8.634;2023-08-06T00:15:05;1.83;;;1.73;;
61527;SDS011;47395;42.032;-8.634;2023-08-06T00:17:07;3.13;;;1.70;;
61527;SDS011;47395;42.032;-8.634;2023-08-06T00:19:08;1.63;;;1.52;;
61527;SDS011;47395;42.032;-8.634;2023-08-06T00:21:09;5.63;;;1.58;;
61527;SDS011;47395;42.032;-8.634;2023-08-06T00:23:12;4.20;;;1.52;;
61527;SDS011;47395;42.032;-8.634;2023-08-06T00:25:13;6.40;;;1.60;;
61527;SDS011;47395;42.032;-8.634;2023-08-06T00:27:14;1.70;;;1.60;;
61527;SDS011;47395;42.032;-8.634;2023-08-06T00:29:15;3.35;;;1.60;;
61527;SDS011;47395;42.032;-8.634;2023-08-06T00:31:16;1.13;;;1.13;;
61527;SDS011;47395;42.032;-8.634;2023-08-06T00:33:17;1.40;;;1.30;;
61527;SDS011;47395;42.032;-8.634;2023-08-06T00:35:18;3.03;;;1.20;;
61527;SDS011;47395;42.032;-8.634;2023-08-06T00:37:18;1.35;;;1.30;;
61527;SDS011;47395;42.032;-8.634;2023-08-06T00:39:19;1.45;;;1.35;;
61527;SDS011;47395;42.032;-8.634;2023-08-06T00:41:20;0.93;;;0.93;;
61527;SDS011;47395;42.032;-8.634;2023-08-06T00:43:21;1.40;;;1.30;;
61527;SDS011;47395;42.032;-8.634;2023-08-06T00:45:22;5.20;;;1.10;;
61527;SDS011;47395;42.032;-8.634;2023-08-06T00:47:25;1.20;;;1.20;;
61527;SDS011;47395;42.032;-8.634;2023-08-06T00:49:26;1.20;;;1.10;;
61527;SDS011;47395;42.032;-8.634;2023-08-06T00:51:27;1.13;;;1.13;;
61527;SDS011;47395;42.032;-8.634;2023-08-06T00:53:28;1.40;;;0.88;;
61527;SDS011;47395;42.032;-8.634;2023-08-06T00:55:29;1.65;;;1.00;;
61527;SDS011;47395;42.032;-8.634;2023-08-06T00:57:31;1.10;;;0.98;;
61527;SDS011;47395;42.032;-8.634;2023-08-06T00:59:32;1.40;;;1.30;;
61527;SDS011;47395;42.032;-8.634;2023-08-06T01:01:33;1.00;;;1.00;;
61527;SDS011;47395;42.032;-8.634;2023-08-06T01:03:33;1.48;;;1.40;;
61527;SDS011;47395;42.032;-8.634;2023-08-06T01:05:34;1.42;;;1.33;;
61527;SDS011;47395;42.032;-8.634;2023-08-06T01:10:24;0.80;;;0.80;;
61527;SDS011;47395;42.032;-8.634;2023-08-06T01:12:54;0.80;;;0.80;;
61527;SDS011;47395;42.032;-8.634;2023-08-06T01:15:07;1.00;;;0.77;;
61527;SDS011;47395;42.032;-8.634;2023-08-06T01:17:15;0.80;;;0.80;;
61527;SDS011;47395;42.032;-8.634;2023-08-06T01:19:17;1.05;;;0.82;;
61527;SDS011;47395;42.032;-8.634;2023-08-06T01:21:19;0.70;;;0.70;;
61527;SDS011;47395;42.032;-8.634;2023-08-06T01:23:19;2.38;;;0.60;;
61527;SDS011;47395;42.032;-8.634;2023-08-06T01:25:21;0.73;;;0.73;;
61527;SDS011;47395;42.032;-8.634;2023-08-06T01:27:33;0.70;;;0.70;;
61527;SDS011;47395;42.032;-8.634;2023-08-06T01:29:46;0.90;;;0.90;;
61527;SDS011;47395;42.032;-8.634;2023-08-06T01:31:55;0.88;;;0.70;;
61527;SDS011;47395;42.032;-8.634;2023-08-06T01:33:58;0.95;;;0.95;;
61527;SDS011;47395;42.032;-8.634;2023-08-06T01:36:01;1.00;;;1.00;;
61527;SDS011;47395;42.032;-8.634;2023-08-06T01:38:06;1.00;;;0.90;;
61527;SDS011;47395;42.032;-8.634;2023-08-06T01:40:10;2.80;;;1.20;;
61527;SDS011;47395;42.032;-8.634;2023-08-06T01:42:14;0.95;;;0.95;;
61527;SDS011;47395;42.032;-8.634;2023-08-06T01:44:15;1.30;;;1.20;;
61527;SDS011;47395;42.032;-8.634;2023-08-06T01:46:16;1.38;;;1.27;;
61527;SDS011;47395;42.032;-8.634;2023-08-06T01:48:18;1.30;;;1.30;;
61527;SDS011;47395;42.032;-8.634;2023-08-06T01:50:19;0.82;;;0.82;;
61527;SDS011;47395;42.032;-8.634;2023-08-06T01:52:20;0.82;;;0.82;;
61527;SDS011;47395;42.032;-8.634;2023-08-06T01:54:20;0.90;;;0.90;;
61527;SDS011;47395;42.032;-8.634;2023-08-06T01:56:23;0.80;;;0.80;;
61527;SDS011;47395;42.032;-8.634;2023-08-06T01:58:23;0.70;;;0.70;;
61527;SDS011;47395;42.032;-8.634;2023-08-06T02:00:24;0.90;;;0.90;;
61527;SDS011;47395;42.032;-8.634;2023-08-06T02:02:26;0.80;;;0.80;;
61527;SDS011;47395;42.032;-8.634;2023-08-06T02:04:27;0.80;;;0.80;;
61527;SDS011;47395;42.032;-8.634;2023-08-06T02:06:29;1.10;;;0.68;;
61527;SDS011;47395;42.032;-8.634;2023-08-06T02:08:30;1.13;;;0.80;;
61527;SDS011;47395;42.032;-8.634;2023-08-06T02:10:31;0.70;;;0.70;;
61527;SDS011;47395;42.032;-8.634;2023-08-06T02:12:32;0.88;;;0.88;;
61527;SDS011;47395;42.032;-8.634;2023-08-06T02:14:33;1.15;;;1.05;;
61527;SDS011;47395;42.032;-8.634;2023-08-06T02:16:34;1.10;;;0.90;;
61527;SDS011;47395;42.032;-8.634;2023-08-06T02:18:36;1.08;;;0.70;;
61527;SDS011;47395;42.032;-8.634;2023-08-06T02:20:37;0.70;;;0.70;;
61527;SDS011;47395;42.032;-8.634;2023-08-06T02:22:38;0.80;;;0.80;;
61527;SDS011;47395;42.032;-8.634;2023-08-06T02:24:39;0.70;;;0.60;;
61527;SDS011;47395;42.032;-8.634;2023-08-06T02:26:39;1.20;;;0.70;;
61527;SDS011;47395;42.032;-8.634;2023-08-06T02:28:40;0.70;;;0.70;;
61527;SDS011;47395;42.032;-8.634;2023-08-06T02:30:49;0.65;;;0.65;;
61527;SDS011;47395;42.032;-8.634;2023-08-06T02:32:50;0.82;;;0.82;;
61527;SDS011;47395;42.032;-8.634;2023-08-06T02:34:51;0.60;;;0.60;;
61527;SDS011;47395;42.032;-8.634;2023-08-06T02:36:52;3.40;;;0.88;;
61527;SDS011;47395;42.032;-8.634;2023-08-06T02:38:53;0.90;;;0.90;;
61527;SDS011;47395;42.032;-8.634;2023-08-06T02:40:54;1.02;;;0.77;;
61527;SDS011;47395;42.032;-8.634;2023-08-06T02:42:57;0.60;;;0.60;;
61527;SDS011;47395;42.032;-8.634;2023-08-06T02:44:58;0.68;;;0.63;;
61527;SDS011;47395;42.032;-8.634;2023-08-06T02:46:59;0.63;;;0.63;;
61527;SDS011;47395;42.032;-8.634;2023-08-06T02:49:00;0.65;;;0.65;;
61527;SDS011;47395;42.032;-8.634;2023-08-06T02:51:01;0.60;;;0.60;;
61527;SDS011;47395;42.032;-8.634;2023-08-06T02:53:04;0.60;;;0.60;;
61527;SDS011;47395;42.032;-8.634;2023-08-06T02:55:05;0.70;;;0.70;;
61527;SDS011;47395;42.032;-8.634;2023-08-06T02:57:07;0.60;;;0.60;;
61527;SDS011;47395;42.032;-8.634;2023-08-06T02:59:09;0.73;;;0.73;;
61527;SDS011;47395;42.032;-8.634;2023-08-06T03:01:24;3.05;;;0.80;;
61527;SDS011;47395;42.032;-8.634;2023-08-06T03:03:31;0.70;;;0.70;;
61527;SDS011;47395;42.032;-8.634;2023-08-06T03:05:35;0.90;;;0.60;;
61527;SDS011;47395;42.032;-8.634;2023-08-06T03:07:36;0.75;;;0.75;;
61527;SDS011;47395;42.032;-8.634;2023-08-06T03:09:45;1.75;;;0.68;;
61527;SDS011;47395;42.032;-8.634;2023-08-06T03:11:46;0.73;;;0.73;;
61527;SDS011;47395;42.032;-8.634;2023-08-06T03:13:49;0.60;;;0.60;;
61527;SDS011;47395;42.032;-8.634;2023-08-06T03:15:56;0.70;;;0.70;;
61527;SDS011;47395;42.032;-8.634;2023-08-06T03:17:59;0.75;;;0.75;;
61527;SDS011;47395;42.032;-8.634;2023-08-06T03:20:00;1.50;;;0.60;;
61527;SDS011;47395;42.032;-8.634;2023-08-06T03:22:02;0.60;;;0.60;;
61527;SDS011;47395;42.032;-8.634;2023-08-06T03:24:04;0.75;;;0.75;;
61527;SDS011;47395;42.032;-8.634;2023-08-06T03:26:07;1.00;;;1.00;;
61527;SDS011;47395;42.032;-8.634;2023-08-06T03:28:08;0.43;;;0.43;;
61527;SDS011;47395;42.032;-8.634;2023-08-06T03:30:10;0.75;;;0.70;;
61527;SDS011;47395;42.032;-8.634;2023-08-06T03:32:12;0.93;;;0.85;;
61527;SDS011;47395;42.032;-8.634;2023-08-06T03:34:15;0.68;;;0.68;;
61527;SDS011;47395;42.032;-8.634;2023-08-06T03:36:16;2.08;;;0.70;;
61527;SDS011;47395;42.032;-8.634;2023-08-06T03:38:17;0.60;;;0.60;;
61527;SDS011;47395;42.032;-8.634;2023-08-06T03:40:18;0.50;;;0.50;;
61527;SDS011;47395;42.032;-8.634;2023-08-06T03:42:19;0.55;;;0.55;;
61527;SDS011;47395;42.032;-8.634;2023-08-06T03:44:20;0.70;;;0.70;;
61527;SDS011;47395;42.032;-8.634;2023-08-06T03:46:22;0.52;;;0.52;;
61527;SDS011;47395;42.032;-8.634;2023-08-06T03:48:23;2.45;;;0.60;;
61527;SDS011;47395;42.032;-8.634;2023-08-06T03:50:24;0.77;;;0.77;;
61527;SDS011;47395;42.032;-8.634;2023-08-06T03:52:25;0.60;;;0.60;;
61527;SDS011;47395;42.032;-8.634;2023-08-06T03:54:26;0.60;;;0.60;;
61527;SDS011;47395;42.032;-8.634;2023-08-06T03:56:27;0.60;;;0.60;;
61527;SDS011;47395;42.032;-8.634;2023-08-06T03:58:28;1.25;;;0.60;;
61527;SDS011;47395;42.032;-8.634;2023-08-06T04:00:29;0.57;;;0.57;;
61527;SDS011;47395;42.032;-8.634;2023-08-06T04:04:41;1.35;;;0.60;;
61527;SDS011;47395;42.032;-8.634;2023-08-06T04:06:42;0.88;;;0.88;;
61527;SDS011;47395;42.032;-8.634;2023-08-06T04:08:43;0.75;;;0.60;;
61527;SDS011;47395;42.032;-8.634;2023-08-06T04:10:44;0.65;;;0.65;;
61527;SDS011;47395;42.032;-8.634;2023-08-06T04:12:44;1.15;;;0.77;;
61527;SDS011;47395;42.032;-8.634;2023-08-06T04:14:45;3.65;;;0.70;;
61527;SDS011;47395;42.032;-8.634;2023-08-06T04:16:46;0.55;;;0.55;;
61527;SDS011;47395;42.032;-8.634;2023-08-06T04:18:48;0.57;;;0.57;;
61527;SDS011;47395;42.032;-8.634;2023-08-06T04:20:49;3.33;;;0.60;;
61527;SDS011;47395;42.032;-8.634;2023-08-06T04:22:50;0.50;;;0.50;;
61527;SDS011;47395;42.032;-8.634;2023-08-06T04:24:50;4.97;;;0.70;;
61527;SDS011;47395;42.032;-8.634;2023-08-06T04:26:51;0.50;;;0.50;;
61527;SDS011;47395;42.032;-8.634;2023-08-06T04:28:52;0.70;;;0.70;;
61527;SDS011;47395;42.032;-8.634;2023-08-06T04:30:54;0.60;;;0.60;;
61527;SDS011;47395;42.032;-8.634;2023-08-06T04:32:56;3.58;;;0.70;;
61527;SDS011;47395;42.032;-8.634;2023-08-06T04:34:59;0.60;;;0.60;;
61527;SDS011;47395;42.032;-8.634;2023-08-06T04:37:00;0.60;;;0.60;;
61527;SDS011;47395;42.032;-8.634;2023-08-06T04:39:02;0.70;;;0.70;;
61527;SDS011;47395;42.032;-8.634;2023-08-06T04:41:03;4.65;;;0.70;;
61527;SDS011;47395;42.032;-8.634;2023-08-06T04:43:04;0.60;;;0.60;;
61527;SDS011;47395;42.032;-8.634;2023-08-06T04:45:08;0.82;;;0.70;;
61527;SDS011;47395;42.032;-8.634;2023-08-06T04:47:09;0.60;;;0.60;;
61527;SDS011;47395;42.032;-8.634;2023-08-06T04:49:10;0.60;;;0.60;;
61527;SDS011;47395;42.032;-8.634;2023-08-06T04:51:11;0.60;;;0.60;;
61527;SDS011;47395;42.032;-8.634;2023-08-06T04:53:12;0.70;;;0.70;;
61527;SDS011;47395;42.032;-8.634;2023-08-06T04:55:13;2.00;;;0.70;;
61527;SDS011;47395;42.032;-8.634;2023-08-06T04:57:13;0.60;;;0.60;;
61527;SDS011;47395;42.032;-8.634;2023-08-06T04:59:14;0.70;;;0.70;;
61527;SDS011;47395;42.032;-8.634;2023-08-06T05:01:15;0.60;;;0.60;;
61527;SDS011;47395;42.032;-8.634;2023-08-06T05:03:16;0.57;;;0.57;;
61527;SDS011;47395;42.032;-8.634;2023-08-06T05:05:17;0.73;;;0.73;;
61527;SDS011;47395;42.032;-8.634;2023-08-06T05:07:17;2.60;;;0.60;;
61527;SDS011;47395;42.032;-8.634;2023-08-06T05:09:18;0.60;;;0.60;;
61527;SDS011;47395;42.032;-8.634;2023-08-06T05:11:20;0.70;;;0.70;;
61527;SDS011;47395;42.032;-8.634;2023-08-06T05:13:21;0.60;;;0.60;;
61527;SDS011;47395;42.032;-8.634;2023-08-06T05:15:21;0.50;;;0.50;;
61527;SDS011;47395;42.032;-8.634;2023-08-06T05:17:22;0.80;;;0.80;;
61527;SDS011;47395;42.032;-8.634;2023-08-06T05:19:25;0.50;;;0.50;;
61527;SDS011;47395;42.032;-8.634;2023-08-06T05:21:26;0.50;;;0.50;;
61527;SDS011;47395;42.032;-8.634;2023-08-06T05:23:26;0.65;;;0.63;;
61527;SDS011;47395;42.032;-8.634;2023-08-06T05:25:27;0.60;;;0.60;;
61527;SDS011;47395;42.032;-8.634;2023-08-06T05:27:28;1.17;;;0.70;;
61527;SDS011;47395;42.032;-8.634;2023-08-06T05:29:30;0.60;;;0.60;;
61527;SDS011;47395;42.032;-8.634;2023-08-06T05:31:31;0.60;;;0.60;;
61527;SDS011;47395;42.032;-8.634;2023-08-06T05:33:32;0.70;;;0.70;;
61527;SDS011;47395;42.032;-8.634;2023-08-06T05:35:33;0.63;;;0.63;;
61527;SDS011;47395;42.032;-8.634;2023-08-06T05:37:33;0.70;;;0.70;;
61527;SDS011;47395;42.032;-8.634;2023-08-06T05:39:34;0.63;;;0.63;;
61527;SDS011;47395;42.032;-8.634;2023-08-06T05:41:35;0.52;;;0.52;;
61527;SDS011;47395;42.032;-8.634;2023-08-06T05:43:36;0.60;;;0.60;;
61527;SDS011;47395;42.032;-8.634;2023-08-06T05:45:36;0.98;;;0.60;;
61527;SDS011;47395;42.032;-8.634;2023-08-06T05:47:37;0.68;;;0.68;;
61527;SDS011;47395;42.032;-8.634;2023-08-06T05:49:38;0.60;;;0.60;;
61527;SDS011;47395;42.032;-8.634;2023-08-06T05:51:39;1.65;;;0.70;;
61527;SDS011;47395;42.032;-8.634;2023-08-06T05:53:40;1.08;;;0.70;;
61527;SDS011;47395;42.032;-8.634;2023-08-06T05:55:40;0.68;;;0.68;;
61527;SDS011;47395;42.032;-8.634;2023-08-06T05:57:41;0.60;;;0.60;;
61527;SDS011;47395;42.032;-8.634;2023-08-06T05:59:42;0.60;;;0.60;;
61527;SDS011;47395;42.032;-8.634;2023-08-06T06:01:43;0.60;;;0.60;;
61527;SDS011;47395;42.032;-8.634;2023-08-06T06:03:44;0.75;;;0.75;;
61527;SDS011;47395;42.032;-8.634;2023-08-06T06:05:44;0.70;;;0.70;;
61527;SDS011;47395;42.032;-8.634;2023-08-06T06:07:45;2.33;;;1.00;;
61527;SDS011;47395;42.032;-8.634;2023-08-06T06:09:46;0.98;;;0.98;;
61527;SDS011;47395;42.032;-8.634;2023-08-06T06:11:47;1.00;;;0.80;;
61527;SDS011;47395;42.032;-8.634;2023-08-06T06:13:50;0.60;;;0.60;;
61527;SDS011;47395;42.032;-8.634;2023-08-06T06:15:54;4.90;;;0.77;;
61527;SDS011;47395;42.032;-8.634;2023-08-06T06:17:56;0.70;;;0.70;;
61527;SDS011;47395;42.032;-8.634;2023-08-06T06:19:57;3.03;;;0.90;;
61527;SDS011;47395;42.032;-8.634;2023-08-06T06:21:58;0.70;;;0.70;;
61527;SDS011;47395;42.032;-8.634;2023-08-06T06:23:59;0.75;;;0.75;;
61527;SDS011;47395;42.032;-8.634;2023-08-06T06:26:00;1.75;;;0.85;;
61527;SDS011;47395;42.032;-8.634;2023-08-06T06:28:00;0.80;;;0.80;;
61527;SDS011;47395;42.032;-8.634;2023-08-06T06:30:01;1.25;;;0.80;;
61527;SDS011;47395;42.032;-8.634;2023-08-06T06:32:03;0.80;;;0.80;;
61527;SDS011;47395;42.032;-8.634;2023-08-06T06:34:04;0.60;;;0.60;;
61527;SDS011;47395;42.032;-8.634;2023-08-06T06:36:04;0.60;;;0.60;;
61527;SDS011;47395;42.032;-8.634;2023-08-06T06:38:07;0.80;;;0.70;;
61527;SDS011;47395;42.032;-8.634;2023-08-06T06:40:08;0.70;;;0.70;;
61527;SDS011;47395;42.032;-8.634;2023-08-06T06:42:10;0.50;;;0.50;;
61527;SDS011;47395;42.032;-8.634;2023-08-06T06:44:17;5.00;;;0.70;;
61527;SDS011;47395;42.032;-8.634;2023-08-06T06:46:17;0.60;;;0.60;;
61527;SDS011;47395;42.032;-8.634;2023-08-06T06:48:18;0.50;;;0.50;;
61527;SDS011;47395;42.032;-8.634;2023-08-06T06:50:19;0.57;;;0.57;;
61527;SDS011;47395;42.032;-8.634;2023-08-06T06:52:20;0.60;;;0.60;;
61527;SDS011;47395;42.032;-8.634;2023-08-06T06:54:21;2.92;;;0.60;;
61527;SDS011;47395;42.032;-8.634;2023-08-06T06:56:21;0.73;;;0.73;;
61527;SDS011;47395;42.032;-8.634;2023-08-06T06:58:22;2.05;;;0.60;;
61527;SDS011;47395;42.032;-8.634;2023-08-06T07:00:23;1.10;;;0.63;;
61527;SDS011;47395;42.032;-8.634;2023-08-06T07:02:24;0.50;;;0.50;;
61527;SDS011;47395;42.032;-8.634;2023-08-06T07:04:25;1.65;;;0.50;;
61527;SDS011;47395;42.032;-8.634;2023-08-06T07:06:25;0.77;;;0.65;;
61527;SDS011;47395;42.032;-8.634;2023-08-06T07:08:26;2.35;;;0.60;;
61527;SDS011;47395;42.032;-8.634;2023-08-06T07:10:27;0.75;;;0.50;;
61527;SDS011;47395;42.032;-8.634;2023-08-06T07:12:28;0.65;;;0.65;;
61527;SDS011;47395;42.032;-8.634;2023-08-06T07:14:29;1.55;;;0.88;;
61527;SDS011;47395;42.032;-8.634;2023-08-06T07:16:30;0.85;;;0.50;;
61527;SDS011;47395;42.032;-8.634;2023-08-06T07:18:30;0.50;;;0.50;;
61527;SDS011;47395;42.032;-8.634;2023-08-06T07:20:31;7.40;;;0.90;;
61527;SDS011;47395;42.032;-8.634;2023-08-06T07:22:34;0.75;;;0.52;;
61527;SDS011;47395;42.032;-8.634;2023-08-06T07:24:35;3.13;;;0.45;;
61527;SDS011;47395;42.032;-8.634;2023-08-06T07:26:35;0.65;;;0.65;;
61527;SDS011;47395;42.032;-8.634;2023-08-06T07:28:36;5.50;;;1.00;;
61527;SDS011;47395;42.032;-8.634;2023-08-06T07:30:40;1.75;;;0.60;;
61527;SDS011;47395;42.032;-8.634;2023-08-06T07:32:42;1.95;;;0.68;;
61527;SDS011;47395;42.032;-8.634;2023-08-06T07:34:43;0.70;;;0.70;;
61527;SDS011;47395;42.032;-8.634;2023-08-06T07:36:44;1.25;;;0.77;;
61527;SDS011;47395;42.032;-8.634;2023-08-06T07:38:46;0.68;;;0.68;;
61527;SDS011;47395;42.032;-8.634;2023-08-06T07:40:49;0.80;;;0.80;;
61527;SDS011;47395;42.032;-8.634;2023-08-06T07:42:49;0.90;;;0.90;;
61527;SDS011;47395;42.032;-8.634;2023-08-06T07:44:54;1.10;;;1.10;;
61527;SDS011;47395;42.032;-8.634;2023-08-06T07:46:55;1.10;;;0.70;;
61527;SDS011;47395;42.032;-8.634;2023-08-06T07:48:56;0.95;;;0.95;;
61527;SDS011;47395;42.032;-8.634;2023-08-06T07:50:57;1.10;;;0.80;;
61527;SDS011;47395;42.032;-8.634;2023-08-06T07:52:58;2.83;;;0.60;;
61527;SDS011;47395;42.032;-8.634;2023-08-06T07:54:59;1.45;;;0.73;;
61527;SDS011;47395;42.032;-8.634;2023-08-06T07:57:00;0.50;;;0.50;;
61527;SDS011;47395;42.032;-8.634;2023-08-06T07:59:01;4.57;;;0.50;;
61527;SDS011;47395;42.032;-8.634;2023-08-06T08:01:02;0.50;;;0.50;;
61527;SDS011;47395;42.032;-8.634;2023-08-06T08:03:03;1.05;;;1.05;;
61527;SDS011;47395;42.032;-8.634;2023-08-06T08:05:04;0.88;;;0.80;;
61527;SDS011;47395;42.032;-8.634;2023-08-06T08:07:09;0.70;;;0.70;;
61527;SDS011;47395;42.032;-8.634;2023-08-06T08:09:10;1.85;;;0.95;;
61527;SDS011;47395;42.032;-8.634;2023-08-06T08:11:11;0.70;;;0.70;;
61527;SDS011;47395;42.032;-8.634;2023-08-06T08:13:12;1.05;;;0.90;;
61527;SDS011;47395;42.032;-8.634;2023-08-06T08:15:13;1.45;;;0.70;;
61527;SDS011;47395;42.032;-8.634;2023-08-06T08:17:13;0.60;;;0.60;;
61527;SDS011;47395;42.032;-8.634;2023-08-06T08:19:14;0.43;;;0.40;;
61527;SDS011;47395;42.032;-8.634;2023-08-06T08:21:15;0.55;;;0.50;;
61527;SDS011;47395;42.032;-8.634;2023-08-06T08:23:16;1.02;;;1.00;;
61527;SDS011;47395;42.032;-8.634;2023-08-06T08:25:17;0.60;;;0.60;;
61527;SDS011;47395;42.032;-8.634;2023-08-06T08:27:17;0.65;;;0.65;;
61527;SDS011;47395;42.032;-8.634;2023-08-06T08:29:22;0.85;;;0.60;;
61527;SDS011;47395;42.032;-8.634;2023-08-06T08:31:23;0.50;;;0.50;;
61527;SDS011;47395;42.032;-8.634;2023-08-06T08:33:23;0.60;;;0.60;;
61527;SDS011;47395;42.032;-8.634;2023-08-06T08:35:24;0.95;;;0.65;;
61527;SDS011;47395;42.032;-8.634;2023-08-06T08:37:25;0.80;;;0.80;;
61527;SDS011;47395;42.032;-8.634;2023-08-06T08:39:26;0.70;;;0.70;;
61527;SDS011;47395;42.032;-8.634;2023-08-06T08:41:30;0.80;;;0.80;;
61527;SDS011;47395;42.032;-8.634;2023-08-06T08:43:31;0.80;;;0.80;;
61527;SDS011;47395;42.032;-8.634;2023-08-06T08:45:32;0.90;;;0.80;;
61527;SDS011;47395;42.032;-8.634;2023-08-06T08:47:42;0.80;;;0.80;;
61527;SDS011;47395;42.032;-8.634;2023-08-06T08:49:43;2.17;;;0.60;;
61527;SDS011;47395;42.032;-8.634;2023-08-06T08:51:46;1.02;;;0.70;;
61527;SDS011;47395;42.032;-8.634;2023-08-06T08:53:49;0.70;;;0.70;;
61527;SDS011;47395;42.032;-8.634;2023-08-06T08:55:53;0.80;;;0.70;;
61527;SDS011;47395;42.032;-8.634;2023-08-06T08:57:55;4.50;;;0.90;;
61527;SDS011;47395;42.032;-8.634;2023-08-06T08:59:56;0.93;;;0.90;;
61527;SDS011;47395;42.032;-8.634;2023-08-06T09:01:57;0.70;;;0.70;;
61527;SDS011;47395;42.032;-8.634;2023-08-06T09:04:00;0.60;;;0.60;;
61527;SDS011;47395;42.032;-8.634;2023-08-06T09:06:02;0.73;;;0.60;;
61527;SDS011;47395;42.032;-8.634;2023-08-06T09:08:04;0.90;;;0.90;;
61527;SDS011;47395;42.032;-8.634;2023-08-06T09:10:05;0.90;;;0.60;;
61527;SDS011;47395;42.032;-8.634;2023-08-06T09:12:14;0.50;;;0.50;;
61527;SDS011;47395;42.032;-8.634;2023-08-06T09:14:16;4.03;;;0.75;;
61527;SDS011;47395;42.032;-8.634;2023-08-06T09:16:17;0.57;;;0.57;;
61527;SDS011;47395;42.032;-8.634;2023-08-06T09:18:24;0.60;;;0.60;;
61527;SDS011;47395;42.032;-8.634;2023-08-06T09:20:28;0.68;;;0.68;;
61527;SDS011;47395;42.032;-8.634;2023-08-06T09:22:33;0.70;;;0.70;;
61527;SDS011;47395;42.032;-8.634;2023-08-06T09:24:35;1.90;;;0.70;;
61527;SDS011;47395;42.032;-8.634;2023-08-06T09:26:39;1.35;;;0.82;;
61527;SDS011;47395;42.032;-8.634;2023-08-06T09:28:43;3.00;;;0.80;;
61527;SDS011;47395;42.032;-8.634;2023-08-06T09:30:44;0.63;;;0.63;;
61527;SDS011;47395;42.032;-8.634;2023-08-06T09:32:48;2.25;;;1.00;;
61527;SDS011;47395;42.032;-8.634;2023-08-06T09:34:56;0.88;;;0.75;;
61527;SDS011;47395;42.032;-8.634;2023-08-06T09:36:57;0.88;;;0.88;;
61527;SDS011;47395;42.032;-8.634;2023-08-06T09:38:58;1.10;;;0.70;;
61527;SDS011;47395;42.032;-8.634;2023-08-06T09:40:59;0.60;;;0.60;;
61527;SDS011;47395;42.032;-8.634;2023-08-06T09:43:00;0.50;;;0.50;;
61527;SDS011;47395;42.032;-8.634;2023-08-06T09:45:10;0.70;;;0.70;;
61527;SDS011;47395;42.032;-8.634;2023-08-06T09:47:11;1.45;;;0.70;;
61527;SDS011;47395;42.032;-8.634;2023-08-06T09:49:12;1.40;;;0.70;;
61527;SDS011;47395;42.032;-8.634;2023-08-06T09:51:13;0.50;;;0.50;;
61527;SDS011;47395;42.032;-8.634;2023-08-06T09:53:16;0.60;;;0.60;;
61527;SDS011;47395;42.032;-8.634;2023-08-06T09:55:17;0.80;;;0.80;;
61527;SDS011;47395;42.032;-8.634;2023-08-06T09:57:18;0.85;;;0.85;;
61527;SDS011;47395;42.032;-8.634;2023-08-06T09:59:20;0.80;;;0.80;;
61527;SDS011;47395;42.032;-8.634;2023-08-06T10:01:21;0.55;;;0.55;;
61527;SDS011;47395;42.032;-8.634;2023-08-06T10:03:25;1.67;;;0.93;;
61527;SDS011;47395;42.032;-8.634;2023-08-06T10:05:26;0.57;;;0.57;;
61527;SDS011;47395;42.032;-8.634;2023-08-06T10:07:28;0.77;;;0.75;;
61527;SDS011;47395;42.032;-8.634;2023-08-06T10:09:30;3.00;;;0.70;;
61527;SDS011;47395;42.032;-8.634;2023-08-06T10:11:31;0.63;;;0.60;;
61527;SDS011;47395;42.032;-8.634;2023-08-06T10:13:32;0.50;;;0.50;;
61527;SDS011;47395;42.032;-8.634;2023-08-06T10:15:36;0.90;;;0.50;;
61527;SDS011;47395;42.032;-8.634;2023-08-06T10:17:38;0.93;;;0.65;;
61527;SDS011;47395;42.032;-8.634;2023-08-06T10:19:40;0.68;;;0.68;;
61527;SDS011;47395;42.032;-8.634;2023-08-06T10:21:42;0.90;;;0.75;;
61527;SDS011;47395;42.032;-8.634;2023-08-06T10:24:15;2.25;;;0.60;;
61527;SDS011;47395;42.032;-8.634;2023-08-06T10:26:16;0.95;;;0.70;;
61527;SDS011;47395;42.032;-8.634;2023-08-06T10:28:17;0.60;;;0.50;;
61527;SDS011;47395;42.032;-8.634;2023-08-06T10:30:29;0.63;;;0.60;;
61527;SDS011;47395;42.032;-8.634;2023-08-06T10:32:47;0.60;;;0.60;;
61527;SDS011;47395;42.032;-8.634;2023-08-06T10:34:55;1.05;;;0.43;;
61527;SDS011;47395;42.032;-8.634;2023-08-06T10:36:57;0.60;;;0.60;;
61527;SDS011;47395;42.032;-8.634;2023-08-06T10:38:58;0.63;;;0.63;;
61527;SDS011;47395;42.032;-8.634;2023-08-06T10:43:00;0.70;;;0.70;;
61527;SDS011;47395;42.032;-8.634;2023-08-06T10:45:11;0.68;;;0.68;;
61527;SDS011;47395;42.032;-8.634;2023-08-06T10:47:28;0.60;;;0.60;;
61527;SDS011;47395;42.032;-8.634;2023-08-06T10:49:29;0.68;;;0.68;;
61527;SDS011;47395;42.032;-8.634;2023-08-06T10:51:29;0.55;;;0.55;;
61527;SDS011;47395;42.032;-8.634;2023-08-06T10:53:30;0.50;;;0.50;;
61527;SDS011;47395;42.032;-8.634;2023-08-06T10:55:31;0.60;;;0.60;;
61527;SDS011;47395;42.032;-8.634;2023-08-06T10:57:32;2.35;;;0.80;;
61527;SDS011;47395;42.032;-8.634;2023-08-06T10:59:33;0.70;;;0.70;;
61527;SDS011;47395;42.032;-8.634;2023-08-06T11:01:33;0.93;;;0.70;;
61527;SDS011;47395;42.032;-8.634;2023-08-06T11:03:35;1.15;;;0.60;;
61527;SDS011;47395;42.032;-8.634;2023-08-06T11:05:37;0.68;;;0.68;;
61527;SDS011;47395;42.032;-8.634;2023-08-06T11:07:38;0.80;;;0.80;;
61527;SDS011;47395;42.032;-8.634;2023-08-06T11:09:39;0.68;;;0.68;;
61527;SDS011;47395;42.032;-8.634;2023-08-06T11:11:40;3.53;;;0.82;;
61527;SDS011;47395;42.032;-8.634;2023-08-06T11:13:43;0.60;;;0.60;;
61527;SDS011;47395;42.032;-8.634;2023-08-06T11:15:46;0.70;;;0.68;;
61527;SDS011;47395;42.032;-8.634;2023-08-06T11:17:47;0.60;;;0.60;;
61527;SDS011;47395;42.032;-8.634;2023-08-06T11:19:48;0.45;;;0.45;;
61527;SDS011;47395;42.032;-8.634;2023-08-06T11:21:50;1.15;;;0.60;;
61527;SDS011;47395;42.032;-8.634;2023-08-06T11:23:52;0.65;;;0.65;;
61527;SDS011;47395;42.032;-8.634;2023-08-06T11:25:53;1.13;;;0.70;;
61527;SDS011;47395;42.032;-8.634;2023-08-06T11:27:54;0.60;;;0.60;;
61527;SDS011;47395;42.032;-8.634;2023-08-06T11:29:55;2.20;;;0.70;;
61527;SDS011;47395;42.032;-8.634;2023-08-06T11:32:03;0.80;;;0.63;;
61527;SDS011;47395;42.032;-8.634;2023-08-06T11:34:04;0.73;;;0.63;;
61527;SDS011;47395;42.032;-8.634;2023-08-06T11:36:05;0.55;;;0.55;;
61527;SDS011;47395;42.032;-8.634;2023-08-06T11:38:07;0.90;;;0.90;;
61527;SDS011;47395;42.032;-8.634;2023-08-06T11:40:09;0.70;;;0.70;;
61527;SDS011;47395;42.032;-8.634;2023-08-06T11:42:11;0.60;;;0.60;;
61527;SDS011;47395;42.032;-8.634;2023-08-06T11:44:12;0.68;;;0.68;;
61527;SDS011;47395;42.032;-8.634;2023-08-06T11:46:14;0.60;;;0.60;;
61527;SDS011;47395;42.032;-8.634;2023-08-06T11:48:16;4.68;;;0.60;;
61527;SDS011;47395;42.032;-8.634;2023-08-06T11:50:22;0.90;;;0.80;;
61527;SDS011;47395;42.032;-8.634;2023-08-06T11:52:23;1.05;;;0.57;;
61527;SDS011;47395;42.032;-8.634;2023-08-06T11:54:31;0.80;;;0.60;;
61527;SDS011;47395;42.032;-8.634;2023-08-06T11:56:37;2.25;;;0.68;;
61527;SDS011;47395;42.032;-8.634;2023-08-06T11:58:38;0.68;;;0.57;;
61527;SDS011;47395;42.032;-8.634;2023-08-06T12:00:42;1.05;;;0.70;;
61527;SDS011;47395;42.032;-8.634;2023-08-06T12:02:43;0.70;;;0.70;;
61527;SDS011;47395;42.032;-8.634;2023-08-06T12:07:10;2.15;;;0.70;;
61527;SDS011;47395;42.032;-8.634;2023-08-06T12:09:10;0.70;;;0.60;;
61527;SDS011;47395;42.032;-8.634;2023-08-06T12:11:11;0.63;;;0.63;;
61527;SDS011;47395;42.032;-8.634;2023-08-06T12:13:12;0.77;;;0.68;;